sensor_id;sensor_type;location;lat;lon;timestamp;temperature;humidity
16305;DHT22;8261;47.678;-122.174;2022-12-24T00:58:15;3.70;99.90
16305;DHT22;8261;47.678;-122.174;2022-12-24T01:00:52;3.70;99.90
16305;DHT22;8261;47.678;-122.174;2022-12-24T01:03:29;3.70;99.90
16305;DHT22;8261;47.678;-122.174;2022-12-24T01:06:17;3.80;99.90
16305;DHT22;8261;47.678;-122.174;2022-12-24T01:08:50;3.80;99.90
16305;DHT22;8261;47.678;-122.174;2022-12-24T01:11:49;4.00;99.90
16305;DHT22;8261;47.678;-122.174;2022-12-24T01:14:43;3.90;99.90
16305;DHT22;8261;47.678;-122.174;2022-12-24T01:17:31;3.90;99.90
16305;DHT22;8261;47.678;-122.174;2022-12-24T01:20:05;3.90;99.90
16305;DHT22;8261;47.678;-122.174;2022-12-24T01:22:45;4.00;99.90
16305;DHT22;8261;47.678;-122.174;2022-12-24T01:25:23;4.00;99.90
16305;DHT22;8261;47.678;-122.174;2022-12-24T01:27:54;3.90;99.90
16305;DHT22;8261;47.678;-122.174;2022-12-24T01:30:27;3.90;99.90
16305;DHT22;8261;47.678;-122.174;2022-12-24T01:33:02;4.00;99.90
16305;DHT22;8261;47.678;-122.174;2022-12-24T01:35:48;4.20;99.90
16305;DHT22;8261;47.678;-122.174;2022-12-24T01:38:19;4.40;99.90
16305;DHT22;8261;47.678;-122.174;2022-12-24T01:40:54;4.50;99.90
16305;DHT22;8261;47.678;-122.174;2022-12-24T01:43:45;4.50;99.90
16305;DHT22;8261;47.678;-122.174;2022-12-24T01:46:32;4.80;99.90
16305;DHT22;8261;47.678;-122.174;2022-12-24T01:49:07;4.60;99.90
16305;DHT22;8261;47.678;-122.174;2022-12-24T01:51:51;4.80;99.90
16305;DHT22;8261;47.678;-122.174;2022-12-24T01:54:31;4.90;99.90
16305;DHT22;8261;47.678;-122.174;2022-12-24T01:57:15;4.90;99.90
16305;DHT22;8261;47.678;-122.174;2022-12-24T01:59:51;5.10;99.90
16305;DHT22;8261;47.678;-122.174;2022-12-24T02:02:27;5.00;99.90
16305;DHT22;8261;47.678;-122.174;2022-12-24T02:05:06;5.10;99.90
16305;DHT22;8261;47.678;-122.174;2022-12-24T02:07:45;5.10;99.90
16305;DHT22;8261;47.678;-122.174;2022-12-24T02:10:18;5.10;99.90
16305;DHT22;8261;47.678;-122.174;2022-12-24T02:12:49;5.10;99.90
16305;DHT22;8261;47.678;-122.174;2022-12-24T02:15:22;5.20;99.90
16305;DHT22;8261;47.678;-122.174;2022-12-24T02:18:03;5.30;99.90
16305;DHT22;8261;47.678;-122.174;2022-12-24T02:27:08;5.20;99.90
16305;DHT22;8261;47.678;-122.174;2022-12-24T02:30:03;5.20;99.90
16305;DHT22;8261;47.678;-122.174;2022-12-24T02:32:42;5.10;99.90
16305;DHT22;8261;47.678;-122.174;2022-12-24T02:35:19;5.00;99.90
16305;DHT22;8261;47.678;-122.174;2022-12-24T02:37:54;4.80;99.90
16305;DHT22;8261;47.678;-122.174;2022-12-24T02:40:30;4.70;99.90
16305;DHT22;8261;47.678;-122.174;2022-12-24T02:43:09;4.80;99.90
16305;DHT22;8261;47.678;-122.174;2022-12-24T02:45:48;4.70;99.90
16305;DHT22;8261;47.678;-122.174;2022-12-24T02:48:27;4.60;99.90
16305;DHT22;8261;47.678;-122.174;2022-12-24T02:51:04;4.60;99.90
16305;DHT22;8261;47.678;-122.174;2022-12-24T02:53:38;4.80;99.90
16305;DHT22;8261;47.678;-122.174;2022-12-24T02:56:35;4.90;99.90
16305;DHT22;8261;47.678;-122.174;2022-12-24T02:59:18;4.90;99.90
16305;DHT22;8261;47.678;-122.174;2022-12-24T03:02:02;5.10;99.90
16305;DHT22;8261;47.678;-122.174;2022-12-24T03:04:50;5.40;99.90
16305;DHT22;8261;47.678;-122.174;2022-12-24T03:07:30;5.40;99.90
16305;DHT22;8261;47.678;-122.174;2022-12-24T03:10:13;5.40;99.90
16305;DHT22;8261;47.678;-122.174;2022-12-24T03:12:51;5.40;99.90
16305;DHT22;8261;47.678;-122.174;2022-12-24T03:15:25;5.50;99.90
16305;DHT22;8261;47.678;-122.174;2022-12-24T03:18:01;5.50;99.90
16305;DHT22;8261;47.678;-122.174;2022-12-24T03:20:38;5.20;99.90
16305;DHT22;8261;47.678;-122.174;2022-12-24T03:23:13;4.90;99.90
16305;DHT22;8261;47.678;-122.174;2022-12-24T03:25:48;4.70;99.90
16305;DHT22;8261;47.678;-122.174;2022-12-24T03:28:25;4.50;99.90
16305;DHT22;8261;47.678;-122.174;2022-12-24T03:31:00;4.20;99.90
16305;DHT22;8261;47.678;-122.174;2022-12-24T03:33:39;4.20;99.90
16305;DHT22;8261;47.678;-122.174;2022-12-24T03:36:12;4.10;99.90
16305;DHT22;8261;47.678;-122.174;2022-12-24T03:38:46;4.00;99.90
16305;DHT22;8261;47.678;-122.174;2022-12-24T03:41:19;4.00;99.90
16305;DHT22;8261;47.678;-122.174;2022-12-24T03:43:50;3.90;99.90
16305;DHT22;8261;47.678;-122.174;2022-12-24T03:46:24;3.80;99.90
16305;DHT22;8261;47.678;-122.174;2022-12-24T03:48:57;3.80;99.90
16305;DHT22;8261;47.678;-122.174;2022-12-24T03:51:38;3.60;99.90
16305;DHT22;8261;47.678;-122.174;2022-12-24T03:54:11;3.60;99.90
16305;DHT22;8261;47.678;-122.174;2022-12-24T03:56:42;3.50;99.90
16305;DHT22;8261;47.678;-122.174;2022-12-24T03:59:18;3.40;99.90
16305;DHT22;8261;47.678;-122.174;2022-12-24T04:01:52;3.30;99.90
16305;DHT22;8261;47.678;-122.174;2022-12-24T04:04:29;3.20;99.90
16305;DHT22;8261;47.678;-122.174;2022-12-24T04:07:02;3.20;99.90
16305;DHT22;8261;47.678;-122.174;2022-12-24T04:09:36;3.10;99.90
16305;DHT22;8261;47.678;-122.174;2022-12-24T04:12:09;3.10;99.90
16305;DHT22;8261;47.678;-122.174;2022-12-24T04:14:39;3.10;99.90
16305;DHT22;8261;47.678;-122.174;2022-12-24T04:17:11;3.00;99.90
16305;DHT22;8261;47.678;-122.174;2022-12-24T04:19:44;2.90;99.90
16305;DHT22;8261;47.678;-122.174;2022-12-24T04:22:26;2.90;99.90
16305;DHT22;8261;47.678;-122.174;2022-12-24T04:24:57;2.80;99.90
16305;DHT22;8261;47.678;-122.174;2022-12-24T04:27:29;2.70;99.90
16305;DHT22;8261;47.678;-122.174;2022-12-24T04:30:03;2.70;99.90
16305;DHT22;8261;47.678;-122.174;2022-12-24T04:32:37;2.70;99.90
16305;DHT22;8261;47.678;-122.174;2022-12-24T04:35:11;2.60;99.90
16305;DHT22;8261;47.678;-122.174;2022-12-24T04:37:42;2.60;99.90
16305;DHT22;8261;47.678;-122.174;2022-12-24T04:40:14;2.60;99.90
16305;DHT22;8261;47.678;-122.174;2022-12-24T04:42:45;2.50;99.90
16305;DHT22;8261;47.678;-122.174;2022-12-24T04:45:19;2.50;99.90
16305;DHT22;8261;47.678;-122.174;2022-12-24T04:47:51;2.50;99.90
16305;DHT22;8261;47.678;-122.174;2022-12-24T04:50:27;2.40;99.90
16305;DHT22;8261;47.678;-122.174;2022-12-24T04:53:10;2.40;99.90
16305;DHT22;8261;47.678;-122.174;2022-12-24T04:55:45;2.40;99.90
16305;DHT22;8261;47.678;-122.174;2022-12-24T04:58:17;2.40;99.90
16305;DHT22;8261;47.678;-122.174;2022-12-24T05:00:55;2.40;99.90
16305;DHT22;8261;47.678;-122.174;2022-12-24T05:03:31;2.40;99.90
16305;DHT22;8261;47.678;-122.174;2022-12-24T05:06:08;2.40;99.90
16305;DHT22;8261;47.678;-122.174;2022-12-24T05:08:43;2.40;99.90
16305;DHT22;8261;47.678;-122.174;2022-12-24T05:11:17;2.40;99.90
16305;DHT22;8261;47.678;-122.174;2022-12-24T05:13:49;2.40;99.90
16305;DHT22;8261;47.678;-122.174;2022-12-24T05:16:24;2.40;99.90
16305;DHT22;8261;47.678;-122.174;2022-12-24T05:18:57;2.30;99.90
16305;DHT22;8261;47.678;-122.174;2022-12-24T05:21:46;2.30;99.90
16305;DHT22;8261;47.678;-122.174;2022-12-24T05:24:39;2.30;99.90
16305;DHT22;8261;47.678;-122.174;2022-12-24T05:27:26;2.30;99.90
16305;DHT22;8261;47.678;-122.174;2022-12-24T05:30:00;2.30;99.90
16305;DHT22;8261;47.678;-122.174;2022-12-24T05:32:32;2.30;99.90
16305;DHT22;8261;47.678;-122.174;2022-12-24T05:35:07;2.30;99.90
16305;DHT22;8261;47.678;-122.174;2022-12-24T05:37:41;2.30;99.90
16305;DHT22;8261;47.678;-122.174;2022-12-24T05:40:17;2.30;99.90
16305;DHT22;8261;47.678;-122.174;2022-12-24T05:42:52;2.30;99.90
16305;DHT22;8261;47.678;-122.174;2022-12-24T05:45:33;2.30;99.90
16305;DHT22;8261;47.678;-122.174;2022-12-24T05:48:05;2.30;99.90
16305;DHT22;8261;47.678;-122.174;2022-12-24T05:50:41;2.30;99.90
16305;DHT22;8261;47.678;-122.174;2022-12-24T05:53:15;2.30;99.90
16305;DHT22;8261;47.678;-122.174;2022-12-24T05:55:53;2.30;99.90
16305;DHT22;8261;47.678;-122.174;2022-12-24T05:58:26;2.40;99.90
16305;DHT22;8261;47.678;-122.174;2022-12-24T06:01:01;2.30;99.90
16305;DHT22;8261;47.678;-122.174;2022-12-24T06:03:33;2.30;99.90
16305;DHT22;8261;47.678;-122.174;2022-12-24T06:06:07;2.30;99.90
16305;DHT22;8261;47.678;-122.174;2022-12-24T06:08:41;2.30;99.90
16305;DHT22;8261;47.678;-122.174;2022-12-24T06:11:14;2.40;99.90
16305;DHT22;8261;47.678;-122.174;2022-12-24T06:13:47;2.30;99.90
16305;DHT22;8261;47.678;-122.174;2022-12-24T06:16:26;2.30;99.90
16305;DHT22;8261;47.678;-122.174;2022-12-24T06:18:57;2.30;99.90
16305;DHT22;8261;47.678;-122.174;2022-12-24T06:21:30;2.30;99.90
16305;DHT22;8261;47.678;-122.174;2022-12-24T06:24:03;2.30;99.90
16305;DHT22;8261;47.678;-122.174;2022-12-24T06:26:35;2.20;99.90
16305;DHT22;8261;47.678;-122.174;2022-12-24T06:29:08;2.30;99.90
16305;DHT22;8261;47.678;-122.174;2022-12-24T06:31:42;2.30;99.90
16305;DHT22;8261;47.678;-122.174;2022-12-24T06:34:13;2.20;99.90
16305;DHT22;8261;47.678;-122.174;2022-12-24T06:36:45;2.20;99.90
16305;DHT22;8261;47.678;-122.174;2022-12-24T06:39:22;2.30;99.90
16305;DHT22;8261;47.678;-122.174;2022-12-24T06:41:54;2.20;99.90
16305;DHT22;8261;47.678;-122.174;2022-12-24T06:44:26;2.20;99.90
16305;DHT22;8261;47.678;-122.174;2022-12-24T06:46:59;2.20;99.90
16305;DHT22;8261;47.678;-122.174;2022-12-24T06:49:31;2.30;99.90
16305;DHT22;8261;47.678;-122.174;2022-12-24T06:52:09;2.20;99.90
16305;DHT22;8261;47.678;-122.174;2022-12-24T06:54:43;2.20;99.90
16305;DHT22;8261;47.678;-122.174;2022-12-24T06:57:15;2.20;99.90
16305;DHT22;8261;47.678;-122.174;2022-12-24T06:59:48;2.20;99.90
16305;DHT22;8261;47.678;-122.174;2022-12-24T07:02:25;2.20;99.90
16305;DHT22;8261;47.678;-122.174;2022-12-24T07:04:59;2.20;99.90
16305;DHT22;8261;47.678;-122.174;2022-12-24T07:07:31;2.20;99.90
16305;DHT22;8261;47.678;-122.174;2022-12-24T07:10:09;2.20;99.90
16305;DHT22;8261;47.678;-122.174;2022-12-24T07:12:40;2.30;99.90
16305;DHT22;8261;47.678;-122.174;2022-12-24T07:15:12;2.30;99.90
16305;DHT22;8261;47.678;-122.174;2022-12-24T07:17:43;2.30;99.90
16305;DHT22;8261;47.678;-122.174;2022-12-24T07:20:19;2.20;99.90
16305;DHT22;8261;47.678;-122.174;2022-12-24T07:22:54;2.30;99.90
16305;DHT22;8261;47.678;-122.174;2022-12-24T07:25:29;2.30;99.90
16305;DHT22;8261;47.678;-122.174;2022-12-24T07:28:01;2.20;99.90
16305;DHT22;8261;47.678;-122.174;2022-12-24T07:30:36;2.20;99.90
16305;DHT22;8261;47.678;-122.174;2022-12-24T07:33:08;2.30;99.90
16305;DHT22;8261;47.678;-122.174;2022-12-24T07:35:47;2.30;99.90
16305;DHT22;8261;47.678;-122.174;2022-12-24T07:38:23;2.30;99.90
16305;DHT22;8261;47.678;-122.174;2022-12-24T07:41:10;2.40;99.90
16305;DHT22;8261;47.678;-122.174;2022-12-24T07:43:42;2.40;99.90
16305;DHT22;8261;47.678;-122.174;2022-12-24T07:46:13;2.40;99.90
16305;DHT22;8261;47.678;-122.174;2022-12-24T07:48:44;2.40;99.90
16305;DHT22;8261;47.678;-122.174;2022-12-24T07:51:15;2.40;99.90
16305;DHT22;8261;47.678;-122.174;2022-12-24T07:53:47;2.40;99.90
16305;DHT22;8261;47.678;-122.174;2022-12-24T07:56:22;2.40;99.90
16305;DHT22;8261;47.678;-122.174;2022-12-24T07:58:55;2.40;99.90
16305;DHT22;8261;47.678;-122.174;2022-12-24T08:01:26;2.40;99.90
16305;DHT22;8261;47.678;-122.174;2022-12-24T08:03:57;2.50;99.90
16305;DHT22;8261;47.678;-122.174;2022-12-24T08:06:29;2.50;99.90
16305;DHT22;8261;47.678;-122.174;2022-12-24T08:09:02;2.40;99.90
16305;DHT22;8261;47.678;-122.174;2022-12-24T08:11:39;2.50;99.90
16305;DHT22;8261;47.678;-122.174;2022-12-24T08:14:19;2.50;99.90
16305;DHT22;8261;47.678;-122.174;2022-12-24T08:16:50;2.50;99.90
16305;DHT22;8261;47.678;-122.174;2022-12-24T08:19:22;2.60;99.90
16305;DHT22;8261;47.678;-122.174;2022-12-24T08:21:56;2.60;99.90
16305;DHT22;8261;47.678;-122.174;2022-12-24T08:24:27;2.60;99.90
16305;DHT22;8261;47.678;-122.174;2022-12-24T08:27:04;2.60;99.90
16305;DHT22;8261;47.678;-122.174;2022-12-24T08:29:39;2.60;99.90
16305;DHT22;8261;47.678;-122.174;2022-12-24T08:32:10;2.60;99.90
16305;DHT22;8261;47.678;-122.174;2022-12-24T08:34:45;2.60;99.90
16305;DHT22;8261;47.678;-122.174;2022-12-24T08:37:18;2.60;99.90
16305;DHT22;8261;47.678;-122.174;2022-12-24T08:39:52;2.60;99.90
